Time,TemperatureF,DewpointF,PressureIn,WindDirection,WindDirectionDegrees,WindSpeedMPH,WindSpeedGustMPH,Humidity,HourlyPrecipIn,Conditions,Clouds,dailyrainin,SoftwareType,DateUTC
2013-01-05 00:00:00,17.2,12.1,30.10,West,267,0.0,5.0,80,0.00,,,0.00,VWS V14.01,2013-01-05 06:00:00,
2013-01-05 00:03:00,17.0,11.9,30.10,West,267,0.0,2.0,80,0.00,,,0.00,VWS V14.01,2013-01-05 06:03:00,
2013-01-05 00:08:00,16.2,11.4,30.10,WSW,248,2.0,5.0,81,0.00,,,0.00,VWS V14.01,2013-01-05 06:08:00,
2013-01-05 00:13:00,15.6,11.1,30.10,WSW,251,0.0,5.0,82,0.00,,,0.00,VWS V14.01,2013-01-05 06:13:00,
2013-01-05 00:15:00,15.1,10.9,30.09,WSW,251,0.0,5.0,83,0.00,,,0.00,VWS V14.01,2013-01-05 06:15:00,
2013-01-05 00:18:00,15.1,10.6,30.09,WSW,251,0.0,1.0,82,0.00,,,0.00,VWS V14.01,2013-01-05 06:18:00,
2013-01-05 00:23:00,15.1,11.1,30.09,WSW,251,0.0,1.0,84,0.00,,,0.00,VWS V14.01,2013-01-05 06:23:00,
2013-01-05 00:28:00,15.4,11.4,30.09,WSW,251,0.0,1.0,84,0.00,,,0.00,VWS V14.01,2013-01-05 06:28:00,
2013-01-05 00:30:00,15.7,11.5,30.08,WSW,251,1.0,2.0,83,0.00,,,0.00,VWS V14.01,2013-01-05 06:30:00,
2013-01-05 00:33:00,15.9,11.7,30.08,WSW,251,0.0,2.0,83,0.00,,,0.00,VWS V14.01,2013-01-05 06:33:00,
2013-01-05 00:38:00,16.2,11.7,30.08,WSW,251,0.0,2.0,82,0.00,,,0.00,VWS V14.01,2013-01-05 06:38:00,
2013-01-05 00:43:00,16.5,11.7,30.08,WSW,251,0.0,2.0,81,0.00,,,0.00,VWS V14.01,2013-01-05 06:43:00,
2013-01-05 00:45:00,17.0,12.2,30.07,WSW,251,2.0,2.0,81,0.00,,,0.00,VWS V14.01,2013-01-05 06:45:00,
2013-01-05 00:48:00,17.2,11.8,30.07,WSW,251,2.0,2.0,79,0.00,,,0.00,VWS V14.01,2013-01-05 06:48:00,
2013-01-05 00:53:00,17.5,12.1,30.07,WSW,251,1.0,3.0,79,0.00,,,0.00,VWS V14.01,2013-01-05 06:53:00,
2013-01-05 00:58:00,17.3,11.9,30.07,WSW,251,3.0,3.0,79,0.00,,,0.00,VWS V14.01,2013-01-05 06:58:00,
2013-01-05 01:00:00,16.7,11.3,30.07,WSW,251,3.0,5.0,79,0.00,,,0.00,VWS V14.01,2013-01-05 07:00:00,
2013-01-05 01:03:00,16.4,11.6,30.07,WSW,251,3.0,5.0,81,0.00,,,0.00,VWS V14.01,2013-01-05 07:03:00,
2013-01-05 01:08:00,14.1,8.8,30.07,WSW,251,2.0,5.0,79,0.00,,,0.00,VWS V14.01,2013-01-05 07:08:00,
2013-01-05 01:13:00,12.6,8.2,30.07,WSW,251,2.0,5.0,82,0.00,,,0.00,VWS V14.01,2013-01-05 07:13:00,
2013-01-05 01:15:00,12.4,8.5,30.07,WSW,251,3.0,5.0,84,0.00,,,0.00,VWS V14.01,2013-01-05 07:15:00,
2013-01-05 01:18:00,12.1,8.2,30.07,WSW,250,2.0,5.0,84,0.00,,,0.00,VWS V14.01,2013-01-05 07:18:00,
2013-01-05 01:23:00,12.3,8.9,30.07,WSW,250,2.0,5.0,86,0.00,,,0.00,VWS V14.01,2013-01-05 07:23:00,
2013-01-05 01:28:00,13.1,10.2,30.07,WSW,250,2.0,5.0,88,0.00,,,0.00,VWS V14.01,2013-01-05 07:28:00,
2013-01-05 01:30:00,13.6,10.5,30.06,WSW,250,2.0,5.0,87,0.00,,,0.00,VWS V14.01,2013-01-05 07:30:00,
2013-01-05 01:33:00,14.0,10.9,30.06,WSW,250,3.0,3.0,87,0.00,,,0.00,VWS V14.01,2013-01-05 07:33:00,
2013-01-05 01:38:00,14.4,10.7,30.06,WSW,250,1.0,3.0,85,0.00,,,0.00,VWS V14.01,2013-01-05 07:38:00,
2013-01-05 01:43:00,14.4,10.7,30.06,WSW,250,0.0,3.0,85,0.00,,,0.00,VWS V14.01,2013-01-05 07:43:00,
2013-01-05 01:45:00,14.6,11.4,30.04,WSW,250,2.0,3.0,87,0.00,,,0.00,VWS V14.01,2013-01-05 07:45:00,
2013-01-05 01:48:00,14.8,11.1,30.04,WSW,250,2.0,3.0,85,0.00,,,0.00,VWS V14.01,2013-01-05 07:48:00,
2013-01-05 01:53:00,14.8,10.6,30.04,WSW,250,3.0,4.0,83,0.00,,,0.00,VWS V14.01,2013-01-05 07:53:00,
2013-01-05 01:58:00,14.3,10.4,30.04,WSW,250,1.0,4.0,84,0.00,,,0.00,VWS V14.01,2013-01-05 07:58:00,
2013-01-05 02:00:00,14.0,10.1,30.05,WSW,250,2.0,4.0,84,0.00,,,0.00,VWS V14.01,2013-01-05 08:00:00,
2013-01-05 02:03:00,13.6,9.9,30.05,WSW,250,2.0,5.0,85,0.00,,,0.00,VWS V14.01,2013-01-05 08:03:00,
2013-01-05 02:08:00,12.9,9.2,30.05,WSW,250,2.0,5.0,85,0.00,,,0.00,VWS V14.01,2013-01-05 08:08:00,
2013-01-05 02:13:00,12.6,9.7,30.05,WSW,250,0.0,5.0,88,0.00,,,0.00,VWS V14.01,2013-01-05 08:13:00,
2013-01-05 02:15:00,12.8,10.2,30.06,WSW,250,0.0,5.0,89,0.00,,,0.00,VWS V14.01,2013-01-05 08:15:00,
2013-01-05 02:18:00,13.1,11.2,30.06,WSW,250,0.0,0.0,92,0.00,,,0.00,VWS V14.01,2013-01-05 08:18:00,
2013-01-05 02:23:00,14.8,12.9,30.06,WSW,251,2.0,3.0,92,0.00,,,0.00,VWS V14.01,2013-01-05 08:23:00,
2013-01-05 02:28:00,14.9,10.9,30.06,WSW,251,2.0,5.0,84,0.00,,,0.00,VWS V14.01,2013-01-05 08:28:00,
2013-01-05 02:30:00,14.9,11.2,30.05,WSW,251,0.0,5.0,85,0.00,,,0.00,VWS V14.01,2013-01-05 08:30:00,
2013-01-05 02:33:00,15.2,11.8,30.05,WSW,251,3.0,3.0,86,0.00,,,0.00,VWS V14.01,2013-01-05 08:33:00,
2013-01-05 02:38:00,15.9,11.9,30.05,WSW,251,1.0,3.0,84,0.00,,,0.00,VWS V14.01,2013-01-05 08:38:00,
2013-01-05 02:43:00,15.7,11.2,30.05,WSW,251,0.0,3.0,82,0.00,,,0.00,VWS V14.01,2013-01-05 08:43:00,
2013-01-05 02:45:00,15.6,11.4,30.05,WSW,251,0.0,3.0,83,0.00,,,0.00,VWS V14.01,2013-01-05 08:45:00,
2013-01-05 02:48:00,15.6,11.4,30.05,WSW,251,0.0,0.0,83,0.00,,,0.00,VWS V14.01,2013-01-05 08:48:00,
2013-01-05 02:53:00,15.2,11.0,30.05,WSW,251,0.0,0.0,83,0.00,,,0.00,VWS V14.01,2013-01-05 08:53:00,
2013-01-05 02:58:00,15.4,12.0,30.05,WSW,251,2.0,3.0,86,0.00,,,0.00,VWS V14.01,2013-01-05 08:58:00,
2013-01-05 03:00:00,15.6,11.6,30.04,WSW,251,0.0,3.0,84,0.00,,,0.00,VWS V14.01,2013-01-05 09:00:00,
2013-01-05 03:03:00,15.7,11.7,30.04,WSW,253,2.0,2.0,84,0.00,,,0.00,VWS V14.01,2013-01-05 09:03:00,
2013-01-05 03:08:00,16.7,12.4,30.04,WSW,253,1.0,5.0,83,0.00,,,0.00,VWS V14.01,2013-01-05 09:08:00,
2013-01-05 03:13:00,16.9,12.4,30.04,WSW,254,0.0,5.0,82,0.00,,,0.00,VWS V14.01,2013-01-05 09:13:00,
2013-01-05 03:15:00,16.9,12.6,30.05,WSW,254,3.0,5.0,83,0.00,,,0.00,VWS V14.01,2013-01-05 09:15:00,
2013-01-05 03:18:00,16.7,11.9,30.05,WSW,254,2.0,5.0,81,0.00,,,0.00,VWS V14.01,2013-01-05 09:18:00,
2013-01-05 03:23:00,16.4,11.9,30.05,WSW,254,4.0,5.0,82,0.00,,,0.00,VWS V14.01,2013-01-05 09:23:00,
2013-01-05 03:28:00,15.2,10.7,30.05,WSW,254,2.0,5.0,82,0.00,,,0.00,VWS V14.01,2013-01-05 09:28:00,
2013-01-05 03:30:00,14.6,10.6,30.05,WSW,254,3.0,5.0,84,0.00,,,0.00,VWS V14.01,2013-01-05 09:30:00,
2013-01-05 03:33:00,14.4,11.0,30.05,WSW,254,2.0,3.0,86,0.00,,,0.00,VWS V14.01,2013-01-05 09:33:00,
2013-01-05 03:38:00,15.2,11.5,30.05,WSW,254,4.0,5.0,85,0.00,,,0.00,VWS V14.01,2013-01-05 09:38:00,
2013-01-05 03:43:00,16.1,12.1,30.05,WSW,248,2.0,6.0,84,0.00,,,0.00,VWS V14.01,2013-01-05 09:43:00,
2013-01-05 03:45:00,16.4,12.1,30.04,WSW,250,2.0,6.0,83,0.00,,,0.00,VWS V14.01,2013-01-05 09:45:00,
2013-01-05 03:48:00,16.4,11.6,30.04,WSW,250,2.0,3.0,81,0.00,,,0.00,VWS V14.01,2013-01-05 09:48:00,
2013-01-05 03:53:00,16.5,11.7,30.04,WSW,251,0.0,3.0,81,0.00,,,0.00,VWS V14.01,2013-01-05 09:53:00,
2013-01-05 03:58:00,16.7,11.6,30.04,WSW,251,0.0,3.0,80,0.00,,,0.00,VWS V14.01,2013-01-05 09:58:00,
2013-01-05 04:00:00,16.9,11.5,30.03,WSW,251,0.0,3.0,79,0.00,,,0.00,VWS V14.01,2013-01-05 10:00:00,
2013-01-05 04:03:00,17.0,11.6,30.03,WSW,251,2.0,2.0,79,0.00,,,0.00,VWS V14.01,2013-01-05 10:03:00,
2013-01-05 04:08:00,17.3,11.6,30.03,WSW,251,0.0,2.0,78,0.00,,,0.00,VWS V14.01,2013-01-05 10:08:00,
2013-01-05 04:13:00,17.2,11.8,30.03,West,277,2.0,6.0,79,0.00,,,0.00,VWS V14.01,2013-01-05 10:13:00,
2013-01-05 04:15:00,17.0,11.6,30.04,West,275,3.0,6.0,79,0.00,,,0.00,VWS V14.01,2013-01-05 10:15:00,
2013-01-05 04:18:00,16.9,11.5,30.04,WSW,258,3.0,4.0,79,0.00,,,0.00,VWS V14.01,2013-01-05 10:18:00,
2013-01-05 04:23:00,16.5,11.1,30.04,WSW,258,1.0,4.0,79,0.00,,,0.00,VWS V14.01,2013-01-05 10:23:00,
2013-01-05 04:28:00,16.2,10.8,30.04,West,268,3.0,5.0,79,0.00,,,0.00,VWS V14.01,2013-01-05 10:28:00,
2013-01-05 04:30:00,16.1,10.5,30.05,West,274,1.0,5.0,78,0.00,,,0.00,VWS V14.01,2013-01-05 10:30:00,
2013-01-05 04:33:00,15.9,10.6,30.05,West,274,2.0,4.0,79,0.00,,,0.00,VWS V14.01,2013-01-05 10:33:00,
2013-01-05 04:38:00,15.4,10.1,30.05,West,275,2.0,4.0,79,0.00,,,0.00,VWS V14.01,2013-01-05 10:38:00,
2013-01-05 04:43:00,14.9,9.6,30.05,West,275,2.0,4.0,79,0.00,,,0.00,VWS V14.01,2013-01-05 10:43:00,
2013-01-05 04:45:00,14.8,9.5,30.05,West,275,2.0,4.0,79,0.00,,,0.00,VWS V14.01,2013-01-05 10:45:00,
2013-01-05 04:48:00,14.4,9.1,30.05,West,275,1.0,2.0,79,0.00,,,0.00,VWS V14.01,2013-01-05 10:48:00,
2013-01-05 04:53:00,13.8,9.1,30.05,West,275,1.0,3.0,81,0.00,,,0.00,VWS V14.01,2013-01-05 10:53:00,
2013-01-05 04:58:00,13.3,8.3,30.05,West,275,2.0,5.0,80,0.00,,,0.00,VWS V14.01,2013-01-05 10:58:00,
2013-01-05 05:00:00,13.1,8.9,30.04,West,275,3.0,5.0,83,0.00,,,0.00,VWS V14.01,2013-01-05 11:00:00,
2013-01-05 05:03:00,12.9,8.2,30.04,West,275,5.0,5.0,81,0.00,,,0.00,VWS V14.01,2013-01-05 11:03:00,
2013-01-05 05:08:00,12.8,8.4,30.04,West,275,0.0,5.0,82,0.00,,,0.00,VWS V14.01,2013-01-05 11:08:00,
2013-01-05 05:13:00,12.8,8.1,30.04,West,275,0.0,5.0,81,0.00,,,0.00,VWS V14.01,2013-01-05 11:13:00,
2013-01-05 05:15:00,12.9,7.9,30.06,West,275,1.0,5.0,80,0.00,,,0.00,VWS V14.01,2013-01-05 11:15:00,
2013-01-05 05:18:00,12.9,8.2,30.06,West,275,1.0,2.0,81,0.00,,,0.00,VWS V14.01,2013-01-05 11:18:00,
2013-01-05 05:23:00,12.9,8.2,30.06,West,275,2.0,2.0,81,0.00,,,0.00,VWS V14.01,2013-01-05 11:23:00,
2013-01-05 05:28:00,12.8,7.8,30.06,West,275,3.0,3.0,80,0.00,,,0.00,VWS V14.01,2013-01-05 11:28:00,
2013-01-05 05:30:00,12.8,7.8,30.06,West,275,1.0,5.0,80,0.00,,,0.00,VWS V14.01,2013-01-05 11:30:00,
2013-01-05 05:33:00,12.8,7.8,30.06,West,275,0.0,2.0,80,0.00,,,0.00,VWS V14.01,2013-01-05 11:33:00,
2013-01-05 05:38:00,12.8,8.1,30.06,West,275,0.0,2.0,81,0.00,,,0.00,VWS V14.01,2013-01-05 11:38:00,
2013-01-05 05:43:00,12.8,8.1,30.06,West,275,1.0,2.0,81,0.00,,,0.00,VWS V14.01,2013-01-05 11:43:00,
2013-01-05 05:45:00,12.9,7.6,30.06,WNW,292,3.0,4.0,79,0.00,,,0.00,VWS V14.01,2013-01-05 11:45:00,
2013-01-05 05:48:00,12.9,7.9,30.06,WNW,294,0.0,4.0,80,0.00,,,0.00,VWS V14.01,2013-01-05 11:48:00,
2013-01-05 05:53:00,13.5,8.5,30.06,WNW,288,2.0,4.0,80,0.00,,,0.00,VWS V14.01,2013-01-05 11:53:00,
2013-01-05 05:58:00,13.5,8.5,30.06,WNW,291,0.0,4.0,80,0.00,,,0.00,VWS V14.01,2013-01-05 11:58:00,
2013-01-05 06:00:00,13.5,8.5,30.06,WNW,291,0.0,4.0,80,0.00,,,0.00,VWS V14.01,2013-01-05 12:00:00,
2013-01-05 06:03:00,13.6,8.6,30.06,WNW,291,0.0,0.0,80,0.00,,,0.00,VWS V14.01,2013-01-05 12:03:00,
2013-01-05 06:08:00,13.8,8.8,30.06,WNW,291,0.0,2.0,80,0.00,,,0.00,VWS V14.01,2013-01-05 12:08:00,
2013-01-05 06:13:00,14.3,9.3,30.06,WNW,291,0.0,2.0,80,0.00,,,0.00,VWS V14.01,2013-01-05 12:13:00,
2013-01-05 06:15:00,14.6,9.8,30.07,WNW,291,0.0,2.0,81,0.00,,,0.00,VWS V14.01,2013-01-05 12:15:00,
2013-01-05 06:18:00,14.9,10.1,30.07,WNW,294,0.0,2.0,81,0.00,,,0.00,VWS V14.01,2013-01-05 12:18:00,
2013-01-05 06:23:00,15.7,10.6,30.07,WNW,299,0.0,3.0,80,0.00,,,0.00,VWS V14.01,2013-01-05 12:23:00,
2013-01-05 06:28:00,16.5,11.1,30.07,NW,309,0.0,3.0,79,0.00,,,0.00,VWS V14.01,2013-01-05 12:28:00,
2013-01-05 06:30:00,16.7,11.3,30.07,NW,309,0.0,3.0,79,0.00,,,0.00,VWS V14.01,2013-01-05 12:30:00,
2013-01-05 06:33:00,16.9,11.5,30.07,NW,309,2.0,2.0,79,0.00,,,0.00,VWS V14.01,2013-01-05 12:33:00,
2013-01-05 06:38:00,17.5,12.1,30.07,NW,323,2.0,3.0,79,0.00,,,0.00,VWS V14.01,2013-01-05 12:38:00,
2013-01-05 06:43:00,18.4,12.4,30.07,NNW,347,5.0,6.0,77,0.00,,,0.00,VWS V14.01,2013-01-05 12:43:00,
2013-01-05 06:45:00,18.9,12.9,30.06,North,359,3.0,6.0,77,0.00,,,0.00,VWS V14.01,2013-01-05 12:45:00,
2013-01-05 06:49:00,19.2,12.6,30.06,North,357,6.0,6.0,75,0.00,,,0.00,VWS V14.01,2013-01-05 12:49:00,
2013-01-05 06:54:00,19.7,12.5,30.06,NNW,333,5.0,7.0,73,0.00,,,0.00,VWS V14.01,2013-01-05 12:54:00,
2013-01-05 06:59:00,19.9,13.3,30.06,North,359,5.0,7.0,75,0.00,,,0.00,VWS V14.01,2013-01-05 12:59:00,
2013-01-05 07:00:00,19.9,13.0,30.06,NNW,347,6.0,8.0,74,0.00,,,0.00,VWS V14.01,2013-01-05 13:00:00,
2013-01-05 07:04:00,19.7,12.5,30.06,North,357,3.0,10.0,73,0.00,,,0.00,VWS V14.01,2013-01-05 13:04:00,
2013-01-05 07:09:00,19.7,12.8,30.06,NNW,337,3.0,11.0,74,0.00,,,0.00,VWS V14.01,2013-01-05 13:09:00,
2013-01-05 07:14:00,19.9,13.0,30.06,North,349,3.0,11.0,74,0.00,,,0.00,VWS V14.01,2013-01-05 13:14:00,
2013-01-05 07:15:00,19.9,12.4,30.08,North,357,10.0,11.0,72,0.00,,,0.00,VWS V14.01,2013-01-05 13:15:00,
2013-01-05 07:19:00,19.9,13.0,30.08,NNW,333,4.0,12.0,74,0.00,,,0.00,VWS V14.01,2013-01-05 13:19:00,
2013-01-05 07:24:00,19.9,12.3,30.08,North,359,5.0,12.0,72,0.00,,,0.00,VWS V14.01,2013-01-05 13:24:00,
2013-01-05 07:29:00,19.9,12.3,30.08,NNW,344,3.0,12.0,72,0.00,,,0.00,VWS V14.01,2013-01-05 13:29:00,
2013-01-05 07:30:00,20.0,12.4,30.08,NNW,343,2.0,12.0,72,0.00,,,0.00,VWS V14.01,2013-01-05 13:30:00,
2013-01-05 07:34:00,20.2,12.3,30.08,NW,325,2.0,4.0,71,0.00,,,0.00,VWS V14.01,2013-01-05 13:34:00,
2013-01-05 07:39:00,20.3,12.1,30.08,North,357,2.0,7.0,70,0.00,,,0.00,VWS V14.01,2013-01-05 13:39:00,
2013-01-05 07:44:00,20.3,11.8,30.08,North,350,5.0,7.0,69,0.00,,,0.00,VWS V14.01,2013-01-05 13:44:00,
2013-01-05 07:45:00,20.3,11.4,30.09,North,352,5.0,7.0,68,0.00,,,0.00,VWS V14.01,2013-01-05 13:45:00,
2013-01-05 07:49:00,20.2,11.7,30.09,North,349,5.0,11.0,69,0.00,,,0.00,VWS V14.01,2013-01-05 13:49:00,
2013-01-05 07:54:00,20.2,11.7,30.09,North,352,6.0,11.0,69,0.00,,,0.00,VWS V14.01,2013-01-05 13:54:00,
2013-01-05 07:59:00,20.2,11.4,30.09,North,359,1.0,11.0,68,0.00,,,0.00,VWS V14.01,2013-01-05 13:59:00,
2013-01-05 08:00:00,20.3,11.8,30.10,NNW,343,2.0,11.0,69,0.00,,,0.00,VWS V14.01,2013-01-05 14:00:00,
2013-01-05 08:04:00,20.5,11.3,30.10,NW,322,1.0,7.0,67,0.00,,,0.00,VWS V14.01,2013-01-05 14:04:00,
2013-01-05 08:09:00,20.8,11.9,30.10,North,357,4.0,7.0,68,0.00,,,0.00,VWS V14.01,2013-01-05 14:09:00,
2013-01-05 08:14:00,20.8,11.6,30.10,NNW,339,0.0,7.0,67,0.00,,,0.00,VWS V14.01,2013-01-05 14:14:00,
2013-01-05 08:15:00,20.8,11.6,30.11,NNW,339,1.0,7.0,67,0.00,,,0.00,VWS V14.01,2013-01-05 14:15:00,
2013-01-05 08:19:00,20.8,11.6,30.11,NNW,340,2.0,3.0,67,0.00,,,0.00,VWS V14.01,2013-01-05 14:19:00,
2013-01-05 08:24:00,20.8,11.6,30.11,NNW,340,1.0,3.0,67,0.00,,,0.00,VWS V14.01,2013-01-05 14:24:00,
2013-01-05 08:29:00,21.0,11.8,30.11,NW,311,0.0,5.0,67,0.00,,,0.00,VWS V14.01,2013-01-05 14:29:00,
2013-01-05 08:30:00,21.0,11.8,30.11,NW,311,0.0,5.0,67,0.00,,,0.00,VWS V14.01,2013-01-05 14:30:00,
2013-01-05 08:34:00,21.1,11.5,30.11,NNW,340,3.0,5.0,66,0.00,,,0.00,VWS V14.01,2013-01-05 14:34:00,
2013-01-05 08:39:00,21.9,12.0,30.11,NNW,329,4.0,11.0,65,0.00,,,0.00,VWS V14.01,2013-01-05 14:39:00,
2013-01-05 08:44:00,22.2,11.9,30.11,North,357,6.0,11.0,64,0.00,,,0.00,VWS V14.01,2013-01-05 14:44:00,
2013-01-05 08:45:00,22.4,12.1,30.13,North,359,5.0,11.0,64,0.00,,,0.00,VWS V14.01,2013-01-05 14:45:00,
2013-01-05 08:49:00,22.7,12.4,30.13,WNW,289,1.0,10.0,64,0.00,,,0.00,VWS V14.01,2013-01-05 14:49:00,
2013-01-05 08:54:00,22.9,12.9,30.13,North,357,2.0,11.0,65,0.00,,,0.00,VWS V14.01,2013-01-05 14:54:00,
2013-01-05 08:59:00,23.2,12.5,30.13,NNW,332,6.0,11.0,63,0.00,,,0.00,VWS V14.01,2013-01-05 14:59:00,
2013-01-05 09:00:00,23.3,12.2,30.13,NNW,339,2.0,11.0,62,0.00,,,0.00,VWS V14.01,2013-01-05 15:00:00,
2013-01-05 09:04:00,23.5,12.4,30.13,NW,309,6.0,6.0,62,0.00,,,0.00,VWS V14.01,2013-01-05 15:04:00,
2013-01-05 09:09:00,23.8,13.1,30.13,NNW,346,0.0,6.0,63,0.00,,,0.00,VWS V14.01,2013-01-05 15:09:00,
2013-01-05 09:14:00,23.6,13.2,30.13,NNW,346,1.0,6.0,64,0.00,,,0.00,VWS V14.01,2013-01-05 15:14:00,
2013-01-05 09:15:00,23.6,13.2,30.13,NNW,346,2.0,6.0,64,0.00,,,0.00,VWS V14.01,2013-01-05 15:15:00,
2013-01-05 09:19:00,23.3,13.3,30.13,NNW,346,0.0,2.0,65,0.00,,,0.00,VWS V14.01,2013-01-05 15:19:00,
2013-01-05 09:24:00,23.0,13.0,30.13,NNW,346,2.0,2.0,65,0.00,,,0.00,VWS V14.01,2013-01-05 15:24:00,
2013-01-05 09:29:00,23.0,13.4,30.13,NNW,346,0.0,2.0,66,0.00,,,0.00,VWS V14.01,2013-01-05 15:29:00,
2013-01-05 09:30:00,23.2,13.2,30.13,NNW,346,2.0,5.0,65,0.00,,,0.00,VWS V14.01,2013-01-05 15:30:00,
2013-01-05 09:34:00,23.5,13.1,30.13,NNW,340,1.0,5.0,64,0.00,,,0.00,VWS V14.01,2013-01-05 15:34:00,
2013-01-05 09:39:00,24.5,14.4,30.13,North,354,3.0,7.0,65,0.00,,,0.00,VWS V14.01,2013-01-05 15:39:00,
2013-01-05 09:44:00,25.1,14.3,30.13,North,359,9.0,13.0,63,0.00,,,0.00,VWS V14.01,2013-01-05 15:44:00,
2013-01-05 09:45:00,25.3,14.1,30.13,North,357,11.0,13.0,62,0.00,,,0.00,VWS V14.01,2013-01-05 15:45:00,
2013-01-05 09:49:00,25.6,14.8,30.13,North,359,7.0,12.0,63,0.00,,,0.00,VWS V14.01,2013-01-05 15:49:00,
2013-01-05 09:54:00,26.0,14.0,30.13,North,356,7.0,12.0,60,0.00,,,0.00,VWS V14.01,2013-01-05 15:54:00,
2013-01-05 09:59:00,26.1,14.9,30.13,NNW,328,4.0,12.0,62,0.00,,,0.00,VWS V14.01,2013-01-05 15:59:00,
2013-01-05 10:00:00,26.3,15.1,30.14,North,359,7.0,12.0,62,0.00,,,0.00,VWS V14.01,2013-01-05 16:00:00,
2013-01-05 10:04:00,26.0,15.1,30.14,North,357,7.0,10.0,63,0.00,,,0.00,VWS V14.01,2013-01-05 16:04:00,
2013-01-05 10:09:00,26.0,14.8,30.14,NW,318,2.0,10.0,62,0.00,,,0.00,VWS V14.01,2013-01-05 16:09:00,
2013-01-05 10:14:00,26.1,14.9,30.14,North,353,5.0,11.0,62,0.00,,,0.00,VWS V14.01,2013-01-05 16:14:00,
2013-01-05 10:15:00,26.1,14.9,30.15,NW,315,6.0,11.0,62,0.00,,,0.00,VWS V14.01,2013-01-05 16:15:00,
2013-01-05 10:19:00,26.4,15.5,30.15,NNW,337,3.0,8.0,63,0.00,,,0.00,VWS V14.01,2013-01-05 16:19:00,
2013-01-05 10:24:00,26.7,15.4,30.15,North,354,2.0,8.0,62,0.00,,,0.00,VWS V14.01,2013-01-05 16:24:00,
2013-01-05 10:29:00,27.3,15.3,30.15,North,352,6.0,8.0,60,0.00,,,0.00,VWS V14.01,2013-01-05 16:29:00,
2013-01-05 10:30:00,27.6,15.6,30.15,NNW,344,6.0,8.0,60,0.00,,,0.00,VWS V14.01,2013-01-05 16:30:00,
2013-01-05 10:34:00,28.1,15.2,30.15,NW,316,2.0,8.0,58,0.00,,,0.00,VWS V14.01,2013-01-05 16:34:00,
2013-01-05 10:39:00,28.7,17.0,30.15,North,359,5.0,8.0,61,0.00,,,0.00,VWS V14.01,2013-01-05 16:39:00,
2013-01-05 10:44:00,29.0,16.5,30.15,North,359,9.0,9.0,59,0.00,,,0.00,VWS V14.01,2013-01-05 16:44:00,
2013-01-05 10:45:00,29.1,16.6,30.16,North,354,3.0,9.0,59,0.00,,,0.00,VWS V14.01,2013-01-05 16:45:00,
2013-01-05 10:49:00,29.3,17.1,30.16,North,350,5.0,8.0,60,0.00,,,0.00,VWS V14.01,2013-01-05 16:49:00,
2013-01-05 10:54:00,29.5,16.6,30.16,NNW,337,5.0,10.0,58,0.00,,,0.00,VWS V14.01,2013-01-05 16:54:00,
2013-01-05 10:59:00,29.8,18.0,30.16,North,0,5.0,10.0,61,0.00,,,0.00,VWS V14.01,2013-01-05 16:59:00,
2013-01-05 11:00:00,29.8,17.2,30.15,North,356,4.0,10.0,59,0.00,,,0.00,VWS V14.01,2013-01-05 17:00:00,
2013-01-05 11:04:00,30.1,17.5,30.15,North,356,7.0,8.0,59,0.00,,,0.00,VWS V14.01,2013-01-05 17:04:00,
2013-01-05 11:09:00,30.4,17.8,30.15,North,357,3.0,8.0,59,0.00,,,0.00,VWS V14.01,2013-01-05 17:09:00,
2013-01-05 11:14:00,30.7,18.5,30.15,North,357,2.0,8.0,60,0.00,,,0.00,VWS V14.01,2013-01-05 17:14:00,
2013-01-05 11:15:00,30.9,18.7,30.15,NNW,347,5.0,10.0,60,0.00,,,0.00,VWS V14.01,2013-01-05 17:15:00,
2013-01-05 11:19:00,31.2,19.0,30.15,NNW,346,3.0,10.0,60,0.00,,,0.00,VWS V14.01,2013-01-05 17:19:00,
2013-01-05 11:24:00,31.5,18.8,30.15,North,352,3.0,10.0,59,0.00,,,0.00,VWS V14.01,2013-01-05 17:24:00,
2013-01-05 11:29:00,31.9,19.6,30.15,NNW,347,5.0,12.0,60,0.00,,,0.00,VWS V14.01,2013-01-05 17:29:00,
2013-01-05 11:30:00,31.9,19.2,30.15,North,359,12.0,12.0,59,0.00,,,0.00,VWS V14.01,2013-01-05 17:30:00,
2013-01-05 11:34:00,32.2,19.9,30.15,NNW,346,10.0,16.0,60,0.00,,,0.00,VWS V14.01,2013-01-05 17:34:00,
2013-01-05 11:39:00,32.7,20.4,30.15,NNW,343,5.0,16.0,60,0.00,,,0.00,VWS V14.01,2013-01-05 17:39:00,
2013-01-05 11:44:00,32.7,19.6,30.15,North,359,7.0,16.0,58,0.00,,,0.00,VWS V14.01,2013-01-05 17:44:00,
2013-01-05 11:45:00,32.8,20.5,30.15,NW,319,7.0,16.0,60,0.00,,,0.00,VWS V14.01,2013-01-05 17:45:00,
2013-01-05 11:49:00,33.1,21.1,30.15,North,350,5.0,10.0,61,0.00,,,0.00,VWS V14.01,2013-01-05 17:49:00,
2013-01-05 11:54:00,33.7,21.7,30.15,NNW,328,1.0,12.0,61,0.00,,,0.00,VWS V14.01,2013-01-05 17:54:00,
2013-01-05 11:59:00,34.1,21.3,30.15,North,359,6.0,13.0,59,0.00,,,0.00,VWS V14.01,2013-01-05 17:59:00,
2013-01-05 12:00:00,34.1,21.3,30.14,NW,316,3.0,13.0,59,0.00,,,0.00,VWS V14.01,2013-01-05 18:00:00,
2013-01-05 12:04:00,34.4,22.0,30.14,NNW,328,7.0,12.0,60,0.00,,,0.00,VWS V14.01,2013-01-05 18:04:00,
2013-01-05 12:09:00,34.7,22.2,30.14,North,359,5.0,12.0,60,0.00,,,0.00,VWS V14.01,2013-01-05 18:09:00,
2013-01-05 12:14:00,35.2,21.5,30.14,North,352,3.0,12.0,57,0.00,,,0.00,VWS V14.01,2013-01-05 18:14:00,
2013-01-05 12:15:00,35.3,22.4,30.14,North,359,5.0,12.0,59,0.00,,,0.00,VWS V14.01,2013-01-05 18:15:00,
2013-01-05 12:19:00,35.8,23.3,30.14,NNW,332,5.0,8.0,60,0.00,,,0.00,VWS V14.01,2013-01-05 18:19:00,
2013-01-05 12:24:00,36.3,23.0,30.14,North,0,6.0,11.0,58,0.00,,,0.00,VWS V14.01,2013-01-05 18:24:00,
2013-01-05 12:29:00,36.8,22.6,30.14,NNW,347,6.0,11.0,56,0.00,,,0.00,VWS V14.01,2013-01-05 18:29:00,
2013-01-05 12:30:00,36.9,22.7,30.13,North,359,8.0,11.0,56,0.00,,,0.00,VWS V14.01,2013-01-05 18:30:00,
2013-01-05 12:34:00,37.0,23.2,30.13,North,359,5.0,11.0,57,0.00,,,0.00,VWS V14.01,2013-01-05 18:34:00,
2013-01-05 12:39:00,37.5,23.2,30.13,NW,318,2.0,12.0,56,0.00,,,0.00,VWS V14.01,2013-01-05 18:39:00,
2013-01-05 12:44:00,37.8,24.0,30.13,North,1,7.0,12.0,57,0.00,,,0.00,VWS V14.01,2013-01-05 18:44:00,
2013-01-05 12:45:00,37.8,24.0,30.13,North,0,5.0,12.0,57,0.00,,,0.00,VWS V14.01,2013-01-05 18:45:00,
2013-01-05 12:49:00,38.0,24.1,30.13,NW,318,5.0,10.0,57,0.00,,,0.00,VWS V14.01,2013-01-05 18:49:00,
2013-01-05 12:54:00,38.2,24.3,30.13,NNW,330,4.0,10.0,57,0.00,,,0.00,VWS V14.01,2013-01-05 18:54:00,
2013-01-05 12:59:00,38.3,24.4,30.13,NW,316,5.0,10.0,57,0.00,,,0.00,VWS V14.01,2013-01-05 18:59:00,
2013-01-05 13:00:00,38.3,24.8,30.13,NNW,329,2.0,10.0,58,0.00,,,0.00,VWS V14.01,2013-01-05 19:00:00,
2013-01-05 13:04:00,38.5,24.6,30.13,NNW,329,5.0,5.0,57,0.00,,,0.00,VWS V14.01,2013-01-05 19:04:00,
2013-01-05 13:09:00,38.8,24.9,30.13,NW,308,2.0,5.0,57,0.00,,,0.00,VWS V14.01,2013-01-05 19:09:00,
2013-01-05 13:14:00,39.1,24.7,30.13,NNW,332,2.0,7.0,56,0.00,,,0.00,VWS V14.01,2013-01-05 19:14:00,
2013-01-05 13:15:00,39.2,25.3,30.13,NNW,332,2.0,7.0,57,0.00,,,0.00,VWS V14.01,2013-01-05 19:15:00,
2013-01-05 13:20:00,39.3,24.9,30.13,NNW,344,2.0,2.0,56,0.00,,,0.00,VWS V14.01,2013-01-05 19:20:00,
2013-01-05 13:25:00,39.3,24.9,30.13,NW,319,3.0,7.0,56,0.00,,,0.00,VWS V14.01,2013-01-05 19:25:00,
2013-01-05 13:30:00,39.5,23.8,30.12,North,353,2.0,11.0,53,0.00,,,0.00,VWS V14.01,2013-01-05 19:30:00,
2013-01-05 13:35:00,39.6,24.8,30.12,NNW,329,5.0,10.0,55,0.00,,,0.00,VWS V14.01,2013-01-05 19:35:00,
2013-01-05 13:40:00,39.6,24.3,30.12,North,359,1.0,10.0,54,0.00,,,0.00,VWS V14.01,2013-01-05 19:40:00,
2013-01-05 13:45:00,39.6,24.3,30.12,NNW,329,2.0,10.0,54,0.00,,,0.00,VWS V14.01,2013-01-05 19:45:00,
2013-01-05 13:50:00,39.6,24.8,30.12,NNW,328,5.0,8.0,55,0.00,,,0.00,VWS V14.01,2013-01-05 19:50:00,
2013-01-05 13:55:00,39.5,25.1,30.12,NW,325,2.0,8.0,56,0.00,,,0.00,VWS V14.01,2013-01-05 19:55:00,
2013-01-05 14:00:00,39.5,25.1,30.12,NNW,335,2.0,8.0,56,0.00,,,0.00,VWS V14.01,2013-01-05 20:00:00,
2013-01-05 14:05:00,39.5,23.8,30.12,NNW,335,5.0,12.0,53,0.00,,,0.00,VWS V14.01,2013-01-05 20:05:00,
2013-01-05 14:10:00,39.6,24.3,30.12,NNW,337,6.0,12.0,54,0.00,,,0.00,VWS V14.01,2013-01-05 20:10:00,
2013-01-05 14:15:00,39.6,25.2,30.12,NW,313,6.0,12.0,56,0.00,,,0.00,VWS V14.01,2013-01-05 20:15:00,
2013-01-05 14:20:00,39.6,24.8,30.12,NNW,336,4.0,7.0,55,0.00,,,0.00,VWS V14.01,2013-01-05 20:20:00,
2013-01-05 14:25:00,39.6,25.2,30.12,NW,323,7.0,7.0,56,0.00,,,0.00,VWS V14.01,2013-01-05 20:25:00,
2013-01-05 14:30:00,39.5,26.0,30.12,WNW,296,7.0,7.0,58,0.00,,,0.00,VWS V14.01,2013-01-05 20:30:00,
2013-01-05 14:35:00,39.5,25.5,30.12,WNW,298,3.0,8.0,57,0.00,,,0.00,VWS V14.01,2013-01-05 20:35:00,
2013-01-05 14:40:00,39.6,25.2,30.12,NNW,346,6.0,10.0,56,0.00,,,0.00,VWS V14.01,2013-01-05 20:40:00,
2013-01-05 14:45:00,39.9,25.9,30.12,NW,318,7.0,10.0,57,0.00,,,0.00,VWS V14.01,2013-01-05 20:45:00,
2013-01-05 14:50:00,40.1,25.7,30.12,NW,313,1.0,8.0,56,0.00,,,0.00,VWS V14.01,2013-01-05 20:50:00,
2013-01-05 14:55:00,40.3,25.9,30.12,NW,315,2.0,8.0,56,0.00,,,0.00,VWS V14.01,2013-01-05 20:55:00,
2013-01-05 15:00:00,40.6,26.1,30.12,NW,325,3.0,8.0,56,0.00,,,0.00,VWS V14.01,2013-01-05 21:00:00,
2013-01-05 15:05:00,40.8,25.9,30.12,North,359,2.0,7.0,55,0.00,,,0.00,VWS V14.01,2013-01-05 21:05:00,
2013-01-05 15:10:00,40.9,26.4,30.12,NW,309,2.0,10.0,56,0.00,,,0.00,VWS V14.01,2013-01-05 21:10:00,
2013-01-05 15:15:00,41.1,25.7,30.12,NNW,340,4.0,10.0,54,0.00,,,0.00,VWS V14.01,2013-01-05 21:15:00,
2013-01-05 15:20:00,41.2,25.8,30.12,North,353,4.0,12.0,54,0.00,,,0.00,VWS V14.01,2013-01-05 21:20:00,
2013-01-05 15:25:00,41.2,24.5,30.12,NNW,343,3.0,12.0,51,0.00,,,0.00,VWS V14.01,2013-01-05 21:25:00,
2013-01-05 15:30:00,41.2,24.9,30.13,NNW,346,5.0,12.0,52,0.00,,,0.00,VWS V14.01,2013-01-05 21:30:00,
2013-01-05 15:35:00,41.1,24.8,30.13,North,350,4.0,11.0,52,0.00,,,0.00,VWS V14.01,2013-01-05 21:35:00,
2013-01-05 15:40:00,40.9,24.6,30.13,North,349,2.0,12.0,52,0.00,,,0.00,VWS V14.01,2013-01-05 21:40:00,
2013-01-05 15:45:00,40.8,25.9,30.14,NW,325,4.0,12.0,55,0.00,,,0.00,VWS V14.01,2013-01-05 21:45:00,
2013-01-05 15:50:00,40.8,25.0,30.14,North,359,6.0,14.0,53,0.00,,,0.00,VWS V14.01,2013-01-05 21:50:00,
2013-01-05 15:55:00,40.8,23.6,30.14,NNW,335,5.0,14.0,50,0.00,,,0.00,VWS V14.01,2013-01-05 21:55:00,
2013-01-05 16:00:00,40.6,23.9,30.14,North,359,5.0,14.0,51,0.00,,,0.00,VWS V14.01,2013-01-05 22:00:00,
2013-01-05 16:05:00,40.5,24.3,30.14,North,349,7.0,13.0,52,0.00,,,0.00,VWS V14.01,2013-01-05 22:05:00,
2013-01-05 16:10:00,40.3,25.4,30.14,NNW,344,7.0,13.0,55,0.00,,,0.00,VWS V14.01,2013-01-05 22:10:00,
2013-01-05 16:15:00,40.2,26.2,30.17,NNW,340,6.0,13.0,57,0.00,,,0.00,VWS V14.01,2013-01-05 22:15:00,
2013-01-05 16:20:00,40.1,25.7,30.17,North,349,6.0,7.0,56,0.00,,,0.00,VWS V14.01,2013-01-05 22:20:00,
2013-01-05 16:25:00,40.1,24.8,30.17,NW,318,3.0,13.0,54,0.00,,,0.00,VWS V14.01,2013-01-05 22:25:00,
2013-01-05 16:30:00,39.9,23.7,30.18,NW,319,6.0,13.0,52,0.00,,,0.00,VWS V14.01,2013-01-05 22:30:00,
2013-01-05 16:35:00,39.8,23.6,30.18,NW,323,11.0,17.0,52,0.00,,,0.00,VWS V14.01,2013-01-05 22:35:00,
2013-01-05 16:40:00,39.6,23.0,30.18,North,356,7.0,17.0,51,0.00,,,0.00,VWS V14.01,2013-01-05 22:40:00,
2013-01-05 16:45:00,39.3,23.2,30.18,NNW,346,10.0,17.0,52,0.00,,,0.00,VWS V14.01,2013-01-05 22:45:00,
2013-01-05 16:50:00,39.1,24.3,30.18,NW,320,4.0,13.0,55,0.00,,,0.00,VWS V14.01,2013-01-05 22:50:00,
2013-01-05 16:55:00,38.9,23.2,30.18,NW,313,5.0,13.0,53,0.00,,,0.00,VWS V14.01,2013-01-05 22:55:00,
2013-01-05 17:00:00,38.6,22.5,30.19,NNW,337,8.0,13.0,52,0.00,,,0.00,VWS V14.01,2013-01-05 23:00:00,
2013-01-05 17:05:00,38.5,22.4,30.19,NNW,337,6.0,10.0,52,0.00,,,0.00,VWS V14.01,2013-01-05 23:05:00,
2013-01-05 17:10:00,38.2,22.6,30.19,NNW,339,6.0,13.0,53,0.00,,,0.00,VWS V14.01,2013-01-05 23:10:00,
2013-01-05 17:15:00,37.9,23.2,30.19,North,357,2.0,13.0,55,0.00,,,0.00,VWS V14.01,2013-01-05 23:15:00,
2013-01-05 17:20:00,37.6,23.3,30.19,North,359,4.0,10.0,56,0.00,,,0.00,VWS V14.01,2013-01-05 23:20:00,
2013-01-05 17:25:00,37.3,23.5,30.19,NNW,328,5.0,10.0,57,0.00,,,0.00,VWS V14.01,2013-01-05 23:25:00,
2013-01-05 17:30:00,37.0,23.2,30.21,NNW,343,3.0,10.0,57,0.00,,,0.00,VWS V14.01,2013-01-05 23:30:00,
2013-01-05 17:35:00,36.6,24.4,30.21,WNW,299,5.0,5.0,61,0.00,,,0.00,VWS V14.01,2013-01-05 23:35:00,
2013-01-05 17:40:00,36.3,23.8,30.21,NW,316,5.0,10.0,60,0.00,,,0.00,VWS V14.01,2013-01-05 23:40:00,
2013-01-05 17:45:00,36.2,23.7,30.22,NNW,339,4.0,10.0,60,0.00,,,0.00,VWS V14.01,2013-01-05 23:45:00,
2013-01-05 17:50:00,36.2,23.3,30.22,NW,318,1.0,8.0,59,0.00,,,0.00,VWS V14.01,2013-01-05 23:50:00,
2013-01-05 17:55:00,36.0,22.7,30.22,NW,308,2.0,8.0,58,0.00,,,0.00,VWS V14.01,2013-01-05 23:55:00,
2013-01-05 18:00:00,35.9,22.6,30.22,NW,323,2.0,8.0,58,0.00,,,0.00,VWS V14.01,2013-01-06 00:00:00,
2013-01-05 18:05:00,35.8,22.9,30.22,NW,313,2.0,6.0,59,0.00,,,0.00,VWS V14.01,2013-01-06 00:05:00,
2013-01-05 18:10:00,35.3,23.2,30.22,NW,315,0.0,6.0,61,0.00,,,0.00,VWS V14.01,2013-01-06 00:10:00,
2013-01-05 18:15:00,35.3,22.8,30.22,NNW,346,2.0,8.0,60,0.00,,,0.00,VWS V14.01,2013-01-06 00:15:00,
2013-01-05 18:20:00,35.3,22.8,30.22,NNW,330,2.0,8.0,60,0.00,,,0.00,VWS V14.01,2013-01-06 00:20:00,
2013-01-05 18:25:00,35.2,23.1,30.22,NW,326,3.0,8.0,61,0.00,,,0.00,VWS V14.01,2013-01-06 00:25:00,
2013-01-05 18:30:00,35.0,23.3,30.23,NW,315,4.0,8.0,62,0.00,,,0.00,VWS V14.01,2013-01-06 00:30:00,
2013-01-05 18:35:00,34.6,23.7,30.23,WNW,282,7.0,7.0,64,0.00,,,0.00,VWS V14.01,2013-01-06 00:35:00,
2013-01-05 18:40:00,34.4,23.9,30.23,NW,320,2.0,7.0,65,0.00,,,0.00,VWS V14.01,2013-01-06 00:40:00,
2013-01-05 18:45:00,34.3,23.4,30.24,NW,313,5.0,7.0,64,0.00,,,0.00,VWS V14.01,2013-01-06 00:45:00,
2013-01-05 18:50:00,34.4,23.5,30.24,WNW,301,5.0,6.0,64,0.00,,,0.00,VWS V14.01,2013-01-06 00:50:00,
2013-01-05 18:55:00,34.1,22.8,30.24,NW,323,2.0,7.0,63,0.00,,,0.00,VWS V14.01,2013-01-06 00:55:00,
2013-01-05 19:00:00,34.3,22.3,30.24,WNW,294,3.0,7.0,61,0.00,,,0.00,VWS V14.01,2013-01-06 01:00:00,
2013-01-05 19:05:00,34.4,22.4,30.24,NW,315,2.0,10.0,61,0.00,,,0.00,VWS V14.01,2013-01-06 01:05:00,
2013-01-05 19:10:00,34.3,22.6,30.24,NNW,340,3.0,10.0,62,0.00,,,0.00,VWS V14.01,2013-01-06 01:10:00,
2013-01-05 19:15:00,34.1,21.7,30.24,NNW,335,5.0,10.0,60,0.00,,,0.00,VWS V14.01,2013-01-06 01:15:00,
2013-01-05 19:20:00,34.3,21.9,30.24,NNW,347,5.0,7.0,60,0.00,,,0.00,VWS V14.01,2013-01-06 01:20:00,
2013-01-05 19:25:00,34.3,22.3,30.24,NNW,342,3.0,9.0,61,0.00,,,0.00,VWS V14.01,2013-01-06 01:25:00,
2013-01-05 19:30:00,34.1,22.1,30.24,NNW,342,2.0,9.0,61,0.00,,,0.00,VWS V14.01,2013-01-06 01:30:00,
2013-01-05 19:35:00,34.0,22.7,30.24,NW,318,2.0,6.0,63,0.00,,,0.00,VWS V14.01,2013-01-06 01:35:00,
2013-01-05 19:40:00,33.7,22.1,30.24,NW,322,1.0,7.0,62,0.00,,,0.00,VWS V14.01,2013-01-06 01:40:00,
2013-01-05 19:45:00,33.4,21.8,30.25,NNW,333,1.0,7.0,62,0.00,,,0.00,VWS V14.01,2013-01-06 01:45:00,
2013-01-05 19:50:00,33.5,21.9,30.25,NW,325,6.0,9.0,62,0.00,,,0.00,VWS V14.01,2013-01-06 01:50:00,
2013-01-05 19:55:00,33.7,22.1,30.25,NNW,344,5.0,9.0,62,0.00,,,0.00,VWS V14.01,2013-01-06 01:55:00,
2013-01-05 20:00:00,33.8,21.4,30.25,NW,323,5.0,9.0,60,0.00,,,0.00,VWS V14.01,2013-01-06 02:00:00,
2013-01-05 20:05:00,33.8,22.2,30.25,NNW,336,2.0,6.0,62,0.00,,,0.00,VWS V14.01,2013-01-06 02:05:00,
2013-01-05 20:10:00,33.7,22.5,30.25,NNW,330,2.0,7.0,63,0.00,,,0.00,VWS V14.01,2013-01-06 02:10:00,
2013-01-05 20:15:00,33.4,22.5,30.25,NNW,328,1.0,7.0,64,0.00,,,0.00,VWS V14.01,2013-01-06 02:15:00,
2013-01-05 20:20:00,33.2,23.5,30.25,NNW,328,1.0,5.0,67,0.00,,,0.00,VWS V14.01,2013-01-06 02:20:00,
2013-01-05 20:25:00,32.9,22.8,30.25,NNW,344,2.0,5.0,66,0.00,,,0.00,VWS V14.01,2013-01-06 02:25:00,
2013-01-05 20:30:00,32.8,22.7,30.25,NW,325,2.0,5.0,66,0.00,,,0.00,VWS V14.01,2013-01-06 02:30:00,
2013-01-05 20:35:00,32.7,22.6,30.25,NNW,329,2.0,5.0,66,0.00,,,0.00,VWS V14.01,2013-01-06 02:35:00,
2013-01-05 20:40:00,32.8,22.0,30.25,NNW,335,5.0,7.0,64,0.00,,,0.00,VWS V14.01,2013-01-06 02:40:00,
2013-01-05 20:45:00,32.8,22.3,30.25,NNW,339,5.0,7.0,65,0.00,,,0.00,VWS V14.01,2013-01-06 02:45:00,
2013-01-05 20:50:00,32.7,21.9,30.25,NNW,339,3.0,6.0,64,0.00,,,0.00,VWS V14.01,2013-01-06 02:50:00,
2013-01-05 20:55:00,32.5,22.8,30.25,NW,322,5.0,6.0,67,0.00,,,0.00,VWS V14.01,2013-01-06 02:55:00,
2013-01-05 21:00:00,32.5,22.4,30.25,NNW,346,3.0,7.0,66,0.00,,,0.00,VWS V14.01,2013-01-06 03:00:00,
2013-01-05 21:05:00,32.4,22.7,30.25,NNW,330,2.0,8.0,67,0.00,,,0.00,VWS V14.01,2013-01-06 03:05:00,
2013-01-05 21:10:00,32.2,22.1,30.25,North,354,3.0,8.0,66,0.00,,,0.00,VWS V14.01,2013-01-06 03:10:00,
2013-01-05 21:15:00,32.1,22.4,30.24,NNW,343,4.0,8.0,67,0.00,,,0.00,VWS V14.01,2013-01-06 03:15:00,
2013-01-05 21:20:00,32.1,22.0,30.24,NNW,333,0.0,7.0,66,0.00,,,0.00,VWS V14.01,2013-01-06 03:20:00,
2013-01-05 21:25:00,32.1,22.0,30.24,NNW,344,2.0,7.0,66,0.00,,,0.00,VWS V14.01,2013-01-06 03:25:00,
2013-01-05 21:30:00,32.1,22.0,30.24,NW,315,2.0,7.0,66,0.00,,,0.00,VWS V14.01,2013-01-06 03:30:00,
2013-01-05 21:35:00,31.8,21.4,30.24,NNW,333,2.0,5.0,65,0.00,,,0.00,VWS V14.01,2013-01-06 03:35:00,
2013-01-05 21:40:00,31.5,21.8,30.24,NNW,333,2.0,5.0,67,0.00,,,0.00,VWS V14.01,2013-01-06 03:40:00,
2013-01-05 21:45:00,30.9,21.9,30.26,NW,305,3.0,7.0,69,0.00,,,0.00,VWS V14.01,2013-01-06 03:45:00,
2013-01-05 21:50:00,30.7,22.1,30.26,NW,318,2.0,6.0,70,0.00,,,0.00,VWS V14.01,2013-01-06 03:50:00,
2013-01-05 21:55:00,30.7,21.8,30.26,NNW,333,2.0,6.0,69,0.00,,,0.00,VWS V14.01,2013-01-06 03:55:00,
2013-01-05 22:00:00,30.9,21.6,30.26,NNW,339,0.0,6.0,68,0.00,,,0.00,VWS V14.01,2013-01-06 04:00:00,
2013-01-05 22:05:00,30.9,21.6,30.26,NNW,333,3.0,6.0,68,0.00,,,0.00,VWS V14.01,2013-01-06 04:05:00,
2013-01-05 22:10:00,31.0,22.0,30.26,North,350,2.0,6.0,69,0.00,,,0.00,VWS V14.01,2013-01-06 04:10:00,
2013-01-05 22:15:00,31.0,21.7,30.25,NW,326,2.0,6.0,68,0.00,,,0.00,VWS V14.01,2013-01-06 04:15:00,
2013-01-05 22:20:00,31.0,22.0,30.25,NNW,332,1.0,7.0,69,0.00,,,0.00,VWS V14.01,2013-01-06 04:20:00,
2013-01-05 22:25:00,30.7,22.4,30.25,North,359,0.0,7.0,71,0.00,,,0.00,VWS V14.01,2013-01-06 04:25:00,
2013-01-05 22:30:00,30.4,22.5,30.25,NNW,339,1.0,7.0,72,0.00,,,0.00,VWS V14.01,2013-01-06 04:30:00,
2013-01-05 22:35:00,30.3,22.7,30.25,NNW,337,2.0,5.0,73,0.00,,,0.00,VWS V14.01,2013-01-06 04:35:00,
2013-01-05 22:40:00,30.1,22.5,30.25,NNW,329,2.0,5.0,73,0.00,,,0.00,VWS V14.01,2013-01-06 04:40:00,
2013-01-05 22:45:00,29.8,22.5,30.25,NNW,328,0.0,5.0,74,0.00,,,0.00,VWS V14.01,2013-01-06 04:45:00,
2013-01-05 22:50:00,29.8,22.5,30.25,NW,306,1.0,6.0,74,0.00,,,0.00,VWS V14.01,2013-01-06 04:50:00,
2013-01-05 22:55:00,29.7,22.4,30.25,NW,313,2.0,6.0,74,0.00,,,0.00,VWS V14.01,2013-01-06 04:55:00,
2013-01-05 23:00:00,29.5,22.6,30.26,NW,311,1.0,6.0,75,0.00,,,0.00,VWS V14.01,2013-01-06 05:00:00,
2013-01-05 23:01:00,29.5,22.6,30.26,NW,312,2.0,2.0,75,0.00,,,0.00,VWS V14.01,2013-01-06 05:01:00,
2013-01-05 23:04:00,29.5,22.6,30.26,WNW,289,4.0,6.0,75,0.00,,,0.00,VWS V14.01,2013-01-06 05:04:00,
2013-01-05 23:07:00,29.4,23.1,30.26,NW,309,3.0,6.0,77,0.00,,,0.00,VWS V14.01,2013-01-06 05:07:00,
2013-01-05 23:12:00,29.4,22.1,30.26,NW,304,2.0,6.0,74,0.00,,,0.00,VWS V14.01,2013-01-06 05:12:00,
2013-01-05 23:15:00,23.9,18.9,30.28,WNW,292,1.0,2.0,81,0.00,,,0.00,VWS V14.01,2013-01-06 05:15:00,
2013-01-05 23:17:00,29.3,22.4,30.26,WNW,302,3.0,3.0,75,0.00,,,0.00,VWS V14.01,2013-01-06 05:17:00,
2013-01-05 23:22:00,29.1,22.5,30.26,NW,308,1.0,6.0,76,0.00,,,0.00,VWS V14.01,2013-01-06 05:22:00,
2013-01-05 23:27:00,29.0,22.7,30.26,NW,304,3.0,6.0,77,0.00,,,0.00,VWS V14.01,2013-01-06 05:27:00,
2013-01-05 23:30:00,24.2,18.9,30.27,WNW,282,2.0,4.0,80,0.00,,,0.00,VWS V14.01,2013-01-06 05:30:00,
2013-01-05 23:32:00,28.8,21.6,30.26,WNW,291,2.0,4.0,74,0.00,,,0.00,VWS V14.01,2013-01-06 05:32:00,
2013-01-05 23:37:00,28.7,22.1,30.26,WNW,292,0.0,5.0,76,0.00,,,0.00,VWS V14.01,2013-01-06 05:37:00,
2013-01-05 23:42:00,27.9,21.0,30.26,WNW,292,0.0,5.0,75,0.00,,,0.00,VWS V14.01,2013-01-06 05:42:00,
2013-01-05 23:45:00,25.3,19.7,30.27,WNW,291,3.0,5.0,79,0.00,,,0.00,VWS V14.01,2013-01-06 05:45:00,
2013-01-05 23:47:00,27.0,20.8,30.27,WNW,292,0.0,0.0,77,0.00,,,0.00,VWS V14.01,2013-01-06 05:47:00,
2013-01-05 23:52:00,26.1,20.2,30.27,WNW,292,0.0,0.0,78,0.00,,,0.00,VWS V14.01,2013-01-06 05:52:00,
2013-01-05 23:57:00,25.6,20.0,30.27,WNW,292,0.0,2.0,79,0.00,,,0.00,VWS V14.01,2013-01-06 05:57:00,